Olga Golovushkina — 9HA3938 — position and weather

sailwx.info

Track history (hours):
 
Tides and Currents Weather Stations Pressure Air Temp Water Temp Dewpoint Dewpoint Depression Visibility Wind Speed Wind Dir Waves Ship Positions

Olga Golovushkina

Last reported at 2018-Feb-16 07:42 UTC. Time now 2018-Feb-18 20:40 UTC.
Position N 37°19' E 025°54'.

Length 140 m; draft 3.8 m.

Type: Tanker. MMSI: 256518000.

Date/timePositionNaut miles runAvg speedWind from/ knotsBaromVisibWave heightAir tempDewpointWater temp
2018-Feb-16 07:42N 37°19' E 025°54'2 9.8
2018-Feb-16 07:30N 37°21' E 025°53'5 9.6
2018-Feb-16 07:00N 37°25' E 025°49'5 9.2
2018-Feb-16 06:30N 37°29' E 025°47'  
2018-Feb-13 22:43N 40°58' E 028°53'  
2018-Feb-11 01:47N 40°57' E 028°54'2 7.6
2018-Feb-11 01:28N 40°58' E 028°57'329 6.5
2018-Feb-08 23:00N 46°17' E 030°46'6 0.2
2018-Feb-07 07:32N 46°21' E 030°39'0 0.1
2018-Feb-07 07:30N 46°21' E 030°39'0 0.9
2018-Feb-07 06:59N 46°20' E 030°39'6 5.5
2018-Feb-07 05:59N 46°17' E 030°46'2 3.8
2018-Feb-07 05:31N 46°15' E 030°46'5 9.0
2018-Feb-07 04:56N 46°17' E 030°53'  
Track history (hours):
 
Tides and Currents Weather Stations Pressure Air Temp Water Temp Dewpoint Dewpoint Depression Visibility Wind Speed Wind Dir Waves Ship Positions

Olga Golovushkina

Last reported at 2018-Feb-16 07:42 UTC. Time now 2018-Feb-18 20:40 UTC.
Position N 37°19' E 025°54'.

Length 140 m; draft 3.8 m.

Type: Tanker. MMSI: 256518000.

Date/timePositionNaut miles runAvg speedWind from/ knotsBaromVisibWave heightAir tempDewpointWater temp
2018-Feb-16 07:42N 37°19' E 025°54'2 9.8
2018-Feb-16 07:30N 37°21' E 025°53'5 9.6
2018-Feb-16 07:00N 37°25' E 025°49'5 9.2
2018-Feb-16 06:30N 37°29' E 025°47'  
2018-Feb-13 22:43N 40°58' E 028°53'  
2018-Feb-11 01:47N 40°57' E 028°54'2 7.6
2018-Feb-11 01:28N 40°58' E 028°57'329 6.5
2018-Feb-08 23:00N 46°17' E 030°46'6 0.2
2018-Feb-07 07:32N 46°21' E 030°39'0 0.1
2018-Feb-07 07:30N 46°21' E 030°39'0 0.9
2018-Feb-07 06:59N 46°20' E 030°39'6 5.5
2018-Feb-07 05:59N 46°17' E 030°46'2 3.8
2018-Feb-07 05:31N 46°15' E 030°46'5 9.0
2018-Feb-07 04:56N 46°17' E 030°53'  

Dump ship's entire track history